Time,TemperatureF,DewpointF,PressureIn,WindDirection,WindDirectionDegrees,WindSpeedMPH,WindSpeedGustMPH,Humidity,HourlyPrecipIn,Conditions,Clouds,dailyrainin,SoftwareType,DateUTC
2013-06-24 00:00:00,59.0,57.0,29.62,SSE,149,4.6,4.6,93,0.00,OVC,,0.28,WeatherDisplay:10.37,2013-06-24 07:00:00,
2013-06-24 00:05:00,59.0,57.0,29.62,SSE,151,4.6,4.6,93,0.00,RA,,0.00,WeatherDisplay:10.37,2013-06-24 07:05:00,
2013-06-24 00:11:00,59.0,57.0,29.62,SSE,163,6.0,6.0,93,0.00,OVC,,0.00,WeatherDisplay:10.37,2013-06-24 07:11:00,
2013-06-24 00:16:00,59.0,57.0,29.62,SSE,151,9.2,9.2,93,0.00,OVC,,0.00,WeatherDisplay:10.37,2013-06-24 07:16:00,
2013-06-24 00:21:00,59.0,57.0,29.61,SSE,157,4.6,4.6,93,0.00,OVC,,0.00,WeatherDisplay:10.37,2013-06-24 07:21:00,
2013-06-24 00:26:00,59.0,57.0,29.62,South,170,4.6,4.6,93,0.00,OVC,,0.00,WeatherDisplay:10.37,2013-06-24 07:26:00,
2013-06-24 00:32:00,59.0,57.0,29.61,SSE,153,5.0,5.0,93,0.00,OVC,,0.00,WeatherDisplay:10.37,2013-06-24 07:32:00,
2013-06-24 00:37:00,59.2,57.2,29.61,SE,126,12.7,12.7,93,0.00,OVC,,0.00,WeatherDisplay:10.37,2013-06-24 07:37:00,
2013-06-24 00:42:00,59.3,57.3,29.61,SSE,148,11.5,11.5,93,0.00,OVC,,0.00,WeatherDisplay:10.37,2013-06-24 07:42:00,
2013-06-24 00:48:00,59.2,57.2,29.61,SE,144,5.8,5.8,93,0.00,OVC,,0.00,WeatherDisplay:10.37,2013-06-24 07:48:00,
2013-06-24 00:53:00,59.0,57.0,29.61,SE,140,6.9,6.9,93,0.00,OVC,,0.00,WeatherDisplay:10.37,2013-06-24 07:53:00,
2013-06-24 00:58:00,59.0,57.0,29.61,SSE,152,10.4,10.4,93,0.00,OVC,,0.00,WeatherDisplay:10.37,2013-06-24 07:58:00,
2013-06-24 01:04:00,59.0,57.0,29.61,SSE,160,5.8,5.8,93,0.00,OVC,,0.00,WeatherDisplay:10.37,2013-06-24 08:04:00,
2013-06-24 01:09:00,59.0,57.0,29.61,SSE,165,10.4,10.4,93,0.00,OVC,,0.00,WeatherDisplay:10.37,2013-06-24 08:09:00,
2013-06-24 01:14:00,59.0,57.0,29.61,SSE,147,10.4,10.4,93,0.00,OVC,,0.00,WeatherDisplay:10.37,2013-06-24 08:14:00,
2013-06-24 01:19:00,59.0,57.0,29.61,SE,146,13.8,13.8,93,0.00,OVC,,0.00,WeatherDisplay:10.37,2013-06-24 08:19:00,
2013-06-24 01:26:00,59.1,57.1,29.61,SE,141,10.4,10.4,93,0.00,OVC,,0.00,WeatherDisplay:10.37,2013-06-24 08:26:00,
2013-06-24 01:31:00,59.3,57.3,29.61,SSE,158,11.5,11.5,93,0.00,OVC,,0.00,WeatherDisplay:10.37,2013-06-24 08:31:00,
2013-06-24 01:38:00,59.3,57.3,29.60,SE,126,9.0,9.0,93,0.00,OVC,,0.00,WeatherDisplay:10.37,2013-06-24 08:38:00,
2013-06-24 01:43:00,59.2,57.2,29.60,SSE,159,10.4,10.4,93,0.00,OVC,,0.00,WeatherDisplay:10.37,2013-06-24 08:43:00,
2013-06-24 01:48:00,59.2,57.2,29.60,SSE,155,16.1,16.1,93,0.00,OVC,,0.00,WeatherDisplay:10.37,2013-06-24 08:48:00,
2013-06-24 01:53:00,59.3,57.3,29.60,SE,140,11.5,11.5,93,0.00,OVC,,0.00,WeatherDisplay:10.37,2013-06-24 08:53:00,
2013-06-24 01:58:00,59.3,57.3,29.60,SE,136,13.8,13.8,93,0.00,OVC,,0.00,WeatherDisplay:10.37,2013-06-24 08:58:00,
2013-06-24 02:04:00,59.1,57.1,29.59,SSE,157,11.5,11.5,93,0.00,OVC,,0.00,WeatherDisplay:10.37,2013-06-24 09:04:00,
2013-06-24 02:10:00,59.0,57.0,29.59,South,184,11.5,11.5,93,0.05,RA,,0.06,WeatherDisplay:10.37,2013-06-24 09:10:00,
2013-06-24 02:15:00,59.0,57.0,29.59,SSE,158,15.0,15.0,93,0.06,RA,,0.06,WeatherDisplay:10.37,2013-06-24 09:15:00,
2013-06-24 02:20:00,59.0,57.0,29.60,SSE,158,12.7,12.7,93,0.06,RA,,0.06,WeatherDisplay:10.37,2013-06-24 09:20:00,
2013-06-24 02:26:00,59.0,57.0,29.60,South,173,12.7,12.7,93,0.06,OVC,,0.06,WeatherDisplay:10.37,2013-06-24 09:26:00,
2013-06-24 02:31:00,58.8,56.8,29.60,SSE,150,15.0,15.0,93,0.07,RA,,0.07,WeatherDisplay:10.37,2013-06-24 09:31:00,
2013-06-24 02:37:00,58.8,56.8,29.60,SSE,157,15.0,15.0,93,0.07,RA,,0.07,WeatherDisplay:10.37,2013-06-24 09:37:00,
2013-06-24 02:42:00,58.7,56.7,29.60,South,189,13.8,13.8,93,0.07,RA,,0.07,WeatherDisplay:10.37,2013-06-24 09:42:00,
2013-06-24 02:47:00,58.7,57.0,29.60,SSE,159,16.1,16.1,94,0.07,OVC,,0.07,WeatherDisplay:10.37,2013-06-24 09:47:00,
2013-06-24 02:52:00,58.7,57.0,29.61,SSE,163,15.0,15.0,94,0.07,OVC,,0.07,WeatherDisplay:10.37,2013-06-24 09:52:00,
2013-06-24 02:58:00,58.6,56.9,29.61,SSE,167,17.3,17.3,94,0.07,OVC,,0.07,WeatherDisplay:10.37,2013-06-24 09:58:00,
2013-06-24 03:03:00,58.6,56.9,29.61,SSE,153,18.0,18.0,94,0.07,OVC,,0.07,WeatherDisplay:10.37,2013-06-24 10:03:00,
2013-06-24 03:08:00,58.5,56.5,29.61,SE,141,11.5,11.5,93,0.07,OVC,,0.07,WeatherDisplay:10.37,2013-06-24 10:08:00,
2013-06-24 03:13:00,58.4,56.7,29.61,South,175,15.0,15.0,94,0.06,OVC,,0.07,WeatherDisplay:10.37,2013-06-24 10:13:00,
2013-06-24 03:19:00,58.2,56.5,29.62,South,177,11.5,11.5,94,0.01,OVC,,0.07,WeatherDisplay:10.37,2013-06-24 10:19:00,
2013-06-24 03:25:00,58.0,56.3,29.62,South,188,1.1,1.1,94,0.01,OVC,,0.07,WeatherDisplay:10.37,2013-06-24 10:25:00,
2013-06-24 03:30:00,57.6,55.9,29.62,WNW,298,4.6,4.6,94,0.01,OVC,,0.07,WeatherDisplay:10.37,2013-06-24 10:30:00,
2013-06-24 03:35:00,57.1,55.1,29.63,NNW,332,3.5,3.5,93,0.01,OVC,,0.07,WeatherDisplay:10.37,2013-06-24 10:35:00,
2013-06-24 03:40:00,56.8,55.1,29.63,NNW,332,3.5,3.5,94,0.01,OVC,,0.07,WeatherDisplay:10.37,2013-06-24 10:40:00,
2013-06-24 03:46:00,56.6,54.9,29.63,NNW,332,0.0,0.0,94,0.01,OVC,,0.07,WeatherDisplay:10.37,2013-06-24 10:46:00,
2013-06-24 03:51:00,56.5,54.5,29.63,NNW,332,0.0,0.0,93,0.01,OVC,,0.07,WeatherDisplay:10.37,2013-06-24 10:51:00,
2013-06-24 03:56:00,56.3,54.3,29.63,NNW,332,0.0,0.0,93,0.00,OVC,,0.07,WeatherDisplay:10.37,2013-06-24 10:56:00,
2013-06-24 04:02:00,56.2,54.5,29.63,NNW,332,2.3,2.3,94,0.00,OVC,,0.07,WeatherDisplay:10.37,2013-06-24 11:02:00,
2013-06-24 04:07:00,56.0,54.3,29.63,NNW,332,1.1,1.1,94,0.00,OVC,,0.07,WeatherDisplay:10.37,2013-06-24 11:07:00,
2013-06-24 04:12:00,56.0,54.3,29.64,NNW,332,0.0,0.0,94,0.00,OVC,,0.07,WeatherDisplay:10.37,2013-06-24 11:12:00,
2013-06-24 04:17:00,56.0,54.3,29.64,NNW,332,4.0,4.0,94,0.00,OVC,,0.07,WeatherDisplay:10.37,2013-06-24 11:17:00,
2013-06-24 04:23:00,56.4,54.7,29.65,South,174,10.0,10.0,94,0.00,OVC,,0.07,WeatherDisplay:10.37,2013-06-24 11:23:00,
2013-06-24 04:28:00,56.6,54.9,29.65,South,174,9.2,9.2,94,0.00,OVC,,0.07,WeatherDisplay:10.37,2013-06-24 11:28:00,
2013-06-24 04:34:00,56.5,54.8,29.64,SSE,159,11.5,11.5,94,0.00,OVC,,0.07,WeatherDisplay:10.37,2013-06-24 11:34:00,
2013-06-24 04:39:00,56.3,54.6,29.65,SE,141,6.9,6.9,94,0.00,OVC,,0.07,WeatherDisplay:10.37,2013-06-24 11:39:00,
2013-06-24 04:44:00,56.2,54.5,29.65,SSE,158,11.0,11.0,94,0.00,OVC,,0.07,WeatherDisplay:10.37,2013-06-24 11:44:00,
2013-06-24 04:49:00,56.0,54.3,29.65,SSE,155,12.0,12.0,94,0.00,OVC,,0.07,WeatherDisplay:10.37,2013-06-24 11:49:00,
2013-06-24 04:54:00,55.8,54.1,29.65,SSE,157,6.0,6.0,94,0.00,OVC,,0.07,WeatherDisplay:10.37,2013-06-24 11:54:00,
2013-06-24 04:59:00,55.7,54.0,29.65,SSE,155,8.1,8.1,94,0.00,OVC,,0.07,WeatherDisplay:10.37,2013-06-24 11:59:00,
2013-06-24 05:05:00,55.6,53.9,29.66,SSE,148,11.5,11.5,94,0.00,OVC,,0.07,WeatherDisplay:10.37,2013-06-24 12:05:00,
2013-06-24 05:10:00,55.5,53.8,29.66,SSW,200,10.4,10.4,94,0.00,OVC,,0.07,WeatherDisplay:10.37,2013-06-24 12:10:00,
2013-06-24 05:15:00,55.4,53.7,29.66,SSE,162,5.8,5.8,94,0.00,OVC,,0.07,WeatherDisplay:10.37,2013-06-24 12:15:00,
2013-06-24 05:20:00,55.3,53.6,29.66,SSE,157,11.5,11.5,94,0.00,OVC,,0.07,WeatherDisplay:10.37,2013-06-24 12:20:00,
2013-06-24 05:26:00,55.1,53.4,29.66,South,179,10.4,10.4,94,0.00,OVC,,0.07,WeatherDisplay:10.37,2013-06-24 12:26:00,
2013-06-24 05:31:00,55.0,53.3,29.66,SSE,155,10.0,10.0,94,0.00,OVC,,0.07,WeatherDisplay:10.37,2013-06-24 12:31:00,
2013-06-24 05:36:00,54.7,53.0,29.66,SE,144,13.8,13.8,94,0.00,OVC,,0.07,WeatherDisplay:10.37,2013-06-24 12:36:00,
2013-06-24 05:42:00,54.5,52.5,29.66,SE,145,14.0,14.0,93,0.00,OVC,,0.07,WeatherDisplay:10.37,2013-06-24 12:42:00,
2013-06-24 05:47:00,54.3,52.3,29.66,SSE,164,6.9,6.9,93,0.00,OVC,,0.07,WeatherDisplay:10.37,2013-06-24 12:47:00,
2013-06-24 05:53:00,54.2,52.2,29.66,SSE,151,10.0,10.0,93,0.00,OVC,,0.07,WeatherDisplay:10.37,2013-06-24 12:53:00,
2013-06-24 05:58:00,54.1,52.1,29.67,SSE,152,6.9,6.9,93,0.00,OVC,,0.07,WeatherDisplay:10.37,2013-06-24 12:58:00,
2013-06-24 06:03:00,54.0,52.0,29.67,SSE,149,6.9,6.9,93,0.00,OVC,,0.07,WeatherDisplay:10.37,2013-06-24 13:03:00,
2013-06-24 06:08:00,53.9,51.9,29.67,SSE,153,10.4,10.4,93,0.00,OVC,,0.07,WeatherDisplay:10.37,2013-06-24 13:08:00,
2013-06-24 06:13:00,53.8,51.8,29.67,SSE,157,7.0,7.0,93,0.00,OVC,,0.07,WeatherDisplay:10.37,2013-06-24 13:13:00,
2013-06-24 06:18:00,53.8,51.8,29.67,SE,137,6.9,6.9,93,0.00,OVC,,0.07,WeatherDisplay:10.37,2013-06-24 13:18:00,
2013-06-24 06:23:00,53.7,51.7,29.67,SSE,156,6.0,6.0,93,0.00,OVC,,0.07,WeatherDisplay:10.37,2013-06-24 13:23:00,
2013-06-24 06:29:00,53.7,51.7,29.67,SE,144,6.9,6.9,93,0.00,OVC,,0.07,WeatherDisplay:10.37,2013-06-24 13:29:00,
2013-06-24 06:34:00,53.7,51.7,29.68,SE,142,9.0,9.0,93,0.00,OVC,,0.07,WeatherDisplay:10.37,2013-06-24 13:34:00,
2013-06-24 06:39:00,53.7,51.7,29.68,SSE,149,6.0,6.0,93,0.00,OVC,,0.07,WeatherDisplay:10.37,2013-06-24 13:39:00,
2013-06-24 06:44:00,53.6,51.6,29.68,SSE,161,8.1,8.1,93,0.00,OVC,,0.07,WeatherDisplay:10.37,2013-06-24 13:44:00,
2013-06-24 06:49:00,53.5,51.5,29.68,SSE,150,11.5,11.5,93,0.00,OVC,,0.07,WeatherDisplay:10.37,2013-06-24 13:49:00,
2013-06-24 06:55:00,53.5,51.5,29.68,SE,144,11.5,11.5,93,0.00,OVC,,0.07,WeatherDisplay:10.37,2013-06-24 13:55:00,
2013-06-24 07:01:00,53.5,51.5,29.68,SSE,148,8.0,8.0,93,0.00,OVC,,0.07,WeatherDisplay:10.37,2013-06-24 14:01:00,
2013-06-24 07:06:00,53.5,51.5,29.68,SSE,154,7.0,7.0,93,0.00,OVC,,0.07,WeatherDisplay:10.37,2013-06-24 14:06:00,
2013-06-24 07:11:00,53.4,51.4,29.68,ENE,78,10.4,10.4,93,0.00,OVC,,0.07,WeatherDisplay:10.37,2013-06-24 14:11:00,
2013-06-24 07:16:00,53.5,51.5,29.68,SSE,150,6.9,6.9,93,0.00,OVC,,0.07,WeatherDisplay:10.37,2013-06-24 14:16:00,
2013-06-24 07:21:00,53.5,51.5,29.68,SSE,147,6.0,6.0,93,0.00,OVC,,0.07,WeatherDisplay:10.37,2013-06-24 14:21:00,
2013-06-24 07:26:00,53.5,51.5,29.68,SSE,159,5.0,5.0,93,0.00,OVC,,0.07,WeatherDisplay:10.37,2013-06-24 14:26:00,
2013-06-24 07:31:00,53.6,51.6,29.68,SE,144,2.3,2.3,93,0.00,OVC,,0.07,WeatherDisplay:10.37,2013-06-24 14:31:00,
2013-06-24 07:36:00,53.6,51.6,29.68,SSE,154,11.0,11.0,93,0.00,OVC,,0.07,WeatherDisplay:10.37,2013-06-24 14:36:00,
2013-06-24 07:41:00,53.6,51.3,29.68,SSE,151,7.0,7.0,92,0.00,OVC,,0.07,WeatherDisplay:10.37,2013-06-24 14:41:00,
2013-06-24 07:46:00,53.7,51.4,29.68,South,171,13.0,13.0,92,0.00,OVC,,0.07,WeatherDisplay:10.37,2013-06-24 14:46:00,
2013-06-24 07:52:00,53.7,51.4,29.68,SE,146,11.0,11.0,92,0.00,OVC,,0.07,WeatherDisplay:10.37,2013-06-24 14:52:00,
2013-06-24 07:57:00,53.9,51.6,29.68,SSE,150,6.9,6.9,92,0.00,OVC,,0.07,WeatherDisplay:10.37,2013-06-24 14:57:00,
2013-06-24 08:02:00,53.9,51.6,29.68,SE,144,12.0,12.0,92,0.00,OVC,,0.07,WeatherDisplay:10.37,2013-06-24 15:02:00,
2013-06-24 08:07:00,54.1,51.8,29.69,SSE,166,11.5,11.5,92,0.00,OVC,,0.07,WeatherDisplay:10.37,2013-06-24 15:07:00,
2013-06-24 08:13:00,54.3,52.0,29.69,SSE,161,10.4,10.4,92,0.00,OVC,,0.07,WeatherDisplay:10.37,2013-06-24 15:13:00,
2013-06-24 08:18:00,54.5,52.2,29.68,SSE,168,9.2,9.2,92,0.00,OVC,,0.07,WeatherDisplay:10.37,2013-06-24 15:18:00,
2013-06-24 08:23:00,54.6,52.3,29.69,ESE,111,6.9,6.9,92,0.00,OVC,,0.07,WeatherDisplay:10.37,2013-06-24 15:23:00,
2013-06-24 08:28:00,54.5,51.9,29.69,SSE,163,9.2,9.2,91,0.00,OVC,,0.07,WeatherDisplay:10.37,2013-06-24 15:28:00,
2013-06-24 08:33:00,54.5,51.9,29.69,SSE,147,11.5,11.5,91,0.00,OVC,,0.07,WeatherDisplay:10.37,2013-06-24 15:33:00,
2013-06-24 08:38:00,54.5,51.9,29.69,SSE,164,9.0,9.0,91,0.00,OVC,,0.07,WeatherDisplay:10.37,2013-06-24 15:38:00,
2013-06-24 08:44:00,54.7,52.1,29.69,SSE,153,14.0,14.0,91,0.00,OVC,,0.07,WeatherDisplay:10.37,2013-06-24 15:44:00,
2013-06-24 08:49:00,54.7,52.1,29.69,SSE,164,16.1,16.1,91,0.00,OVC,,0.07,WeatherDisplay:10.37,2013-06-24 15:49:00,
2013-06-24 08:54:00,54.7,51.8,29.69,South,187,13.8,13.8,90,0.00,OVC,,0.07,WeatherDisplay:10.37,2013-06-24 15:54:00,
2013-06-24 08:59:00,54.7,52.1,29.69,SSE,167,8.1,8.1,91,0.00,OVC,,0.07,WeatherDisplay:10.37,2013-06-24 15:59:00,
2013-06-24 09:04:00,54.6,52.0,29.69,South,180,12.0,12.0,91,0.00,OVC,,0.07,WeatherDisplay:10.37,2013-06-24 16:04:00,
2013-06-24 09:09:00,54.7,52.1,29.69,South,175,10.0,10.0,91,0.00,OVC,,0.07,WeatherDisplay:10.37,2013-06-24 16:09:00,
2013-06-24 09:14:00,54.7,52.1,29.69,SSE,157,10.4,10.4,91,0.00,OVC,,0.07,WeatherDisplay:10.37,2013-06-24 16:14:00,
2013-06-24 09:21:00,54.8,52.5,29.69,SSE,159,9.2,9.2,92,0.00,OVC,,0.07,WeatherDisplay:10.37,2013-06-24 16:21:00,
2013-06-24 09:26:00,54.8,52.5,29.69,SSE,156,9.2,9.2,92,0.00,OVC,,0.07,WeatherDisplay:10.37,2013-06-24 16:26:00,
2013-06-24 09:31:00,54.8,52.5,29.69,SE,146,9.2,9.2,92,0.00,OVC,,0.07,WeatherDisplay:10.37,2013-06-24 16:31:00,
2013-06-24 09:36:00,54.9,52.6,29.69,South,188,10.4,10.4,92,0.00,OVC,,0.07,WeatherDisplay:10.37,2013-06-24 16:36:00,
2013-06-24 09:41:00,55.0,52.4,29.69,SSE,167,11.5,11.5,91,0.00,OVC,,0.07,WeatherDisplay:10.37,2013-06-24 16:41:00,
2013-06-24 09:47:00,54.8,51.9,29.69,SSE,156,12.7,12.7,90,0.00,OVC,,0.07,WeatherDisplay:10.37,2013-06-24 16:47:00,
2013-06-24 09:52:00,54.8,51.9,29.69,South,183,11.5,11.5,90,0.00,OVC,,0.07,WeatherDisplay:10.37,2013-06-24 16:52:00,
2013-06-24 09:57:00,54.9,52.0,29.69,South,169,11.5,11.5,90,0.00,OVC,,0.07,WeatherDisplay:10.37,2013-06-24 16:57:00,
2013-06-24 10:02:00,55.1,52.2,29.69,South,182,11.5,11.5,90,0.00,OVC,,0.07,WeatherDisplay:10.37,2013-06-24 17:02:00,
2013-06-24 10:07:00,55.4,52.8,29.69,SSW,209,8.0,8.0,91,0.00,OVC,,0.07,WeatherDisplay:10.37,2013-06-24 17:07:00,
2013-06-24 10:13:00,55.7,53.1,29.69,SSE,148,11.0,11.0,91,0.00,OVC,,0.07,WeatherDisplay:10.37,2013-06-24 17:13:00,
2013-06-24 10:18:00,55.7,52.8,29.69,ESE,123,6.9,6.9,90,0.00,OVC,,0.07,WeatherDisplay:10.37,2013-06-24 17:18:00,
2013-06-24 10:23:00,55.7,52.8,29.69,South,171,10.4,10.4,90,0.00,OVC,,0.07,WeatherDisplay:10.37,2013-06-24 17:23:00,
2013-06-24 10:28:00,55.5,52.6,29.69,SSE,151,18.4,18.4,90,0.00,OVC,,0.07,WeatherDisplay:10.37,2013-06-24 17:28:00,
2013-06-24 10:33:00,55.7,52.8,29.69,SSW,200,11.5,11.5,90,0.00,OVC,,0.07,WeatherDisplay:10.37,2013-06-24 17:33:00,
2013-06-24 10:38:00,55.8,52.9,29.69,South,170,13.8,13.8,90,0.00,OVC,,0.07,WeatherDisplay:10.37,2013-06-24 17:38:00,
2013-06-24 10:43:00,56.0,52.8,29.69,South,184,12.7,12.7,89,0.00,OVC,,0.07,WeatherDisplay:10.37,2013-06-24 17:43:00,
2013-06-24 10:48:00,55.9,52.4,29.69,South,184,10.4,10.4,88,0.00,OVC,,0.07,WeatherDisplay:10.37,2013-06-24 17:48:00,
2013-06-24 10:54:00,55.9,52.7,29.69,South,175,12.0,12.0,89,0.00,OVC,,0.07,WeatherDisplay:10.37,2013-06-24 17:54:00,
2013-06-24 10:59:00,55.8,52.9,29.69,SSE,157,13.0,13.0,90,0.00,OVC,,0.07,WeatherDisplay:10.37,2013-06-24 17:59:00,
2013-06-24 11:04:00,55.6,52.7,29.69,SW,216,8.1,8.1,90,0.00,OVC,,0.07,WeatherDisplay:10.37,2013-06-24 18:04:00,
2013-06-24 11:09:00,55.4,52.5,29.69,SSE,167,11.5,11.5,90,0.00,OVC,,0.07,WeatherDisplay:10.37,2013-06-24 18:09:00,
2013-06-24 11:14:00,55.4,52.8,29.69,South,186,8.0,8.0,91,0.00,OVC,,0.07,WeatherDisplay:10.37,2013-06-24 18:14:00,
2013-06-24 11:20:00,55.5,52.9,29.69,SSE,155,10.4,10.4,91,0.01,RA,,0.08,WeatherDisplay:10.37,2013-06-24 18:20:00,
2013-06-24 11:25:00,55.4,52.8,29.69,SSE,166,12.0,12.0,91,0.01,RA,,0.08,WeatherDisplay:10.37,2013-06-24 18:25:00,
2013-06-24 11:30:00,55.3,52.7,29.69,South,177,13.8,13.8,91,0.01,OVC,,0.08,WeatherDisplay:10.37,2013-06-24 18:30:00,
2013-06-24 11:35:00,55.3,52.7,29.69,SSE,162,12.7,12.7,91,0.01,OVC,,0.08,WeatherDisplay:10.37,2013-06-24 18:35:00,
2013-06-24 11:40:00,55.4,53.1,29.69,South,186,7.0,7.0,92,0.01,OVC,,0.08,WeatherDisplay:10.37,2013-06-24 18:40:00,
2013-06-24 11:46:00,55.4,53.1,29.69,SSE,159,9.2,9.2,92,0.01,OVC,,0.08,WeatherDisplay:10.37,2013-06-24 18:46:00,
2013-06-24 11:51:00,55.3,52.7,29.69,SSE,165,13.8,13.8,91,0.01,OVC,,0.08,WeatherDisplay:10.37,2013-06-24 18:51:00,
2013-06-24 11:56:00,55.3,52.7,29.69,SSE,168,12.7,12.7,91,0.01,OVC,,0.08,WeatherDisplay:10.37,2013-06-24 18:56:00,
2013-06-24 12:01:00,55.7,53.1,29.69,South,173,6.9,6.9,91,0.01,OVC,,0.08,WeatherDisplay:10.37,2013-06-24 19:01:00,
2013-06-24 12:07:00,55.9,53.3,29.69,South,180,13.8,13.8,91,0.01,OVC,,0.08,WeatherDisplay:10.37,2013-06-24 19:07:00,
2013-06-24 12:12:00,56.0,53.1,29.69,SSE,150,10.4,10.4,90,0.01,OVC,,0.08,WeatherDisplay:10.37,2013-06-24 19:12:00,
2013-06-24 12:17:00,56.0,53.1,29.69,SSE,160,10.4,10.4,90,0.00,OVC,,0.08,WeatherDisplay:10.37,2013-06-24 19:17:00,
2013-06-24 12:22:00,55.8,52.9,29.69,SSE,165,9.2,9.2,90,0.00,OVC,,0.08,WeatherDisplay:10.37,2013-06-24 19:22:00,
2013-06-24 12:28:00,55.9,53.3,29.69,SSE,166,9.2,9.2,91,0.00,OVC,,0.08,WeatherDisplay:10.37,2013-06-24 19:28:00,
2013-06-24 12:33:00,56.2,53.3,29.69,SSE,155,11.5,11.5,90,0.00,OVC,,0.08,WeatherDisplay:10.37,2013-06-24 19:33:00,
2013-06-24 12:38:00,56.3,53.1,29.69,South,176,10.4,10.4,89,0.00,OVC,,0.08,WeatherDisplay:10.37,2013-06-24 19:38:00,
2013-06-24 12:43:00,56.8,53.9,29.68,SSW,204,17.0,17.0,90,0.00,OVC,,0.08,WeatherDisplay:10.37,2013-06-24 19:43:00,
2013-06-24 12:48:00,57.0,53.8,29.68,SE,134,6.0,6.0,89,0.00,OVC,,0.08,WeatherDisplay:10.37,2013-06-24 19:48:00,
2013-06-24 12:53:00,57.4,53.6,29.68,South,177,11.5,11.5,87,0.00,OVC,,0.08,WeatherDisplay:10.37,2013-06-24 19:53:00,
2013-06-24 12:58:00,57.7,53.2,29.68,SSE,155,15.0,15.0,85,0.00,OVC,,0.08,WeatherDisplay:10.37,2013-06-24 19:58:00,
2013-06-24 13:03:00,57.6,53.1,29.68,SSW,192,15.0,15.0,85,0.00,OVC,,0.08,WeatherDisplay:10.37,2013-06-24 20:03:00,
2013-06-24 13:08:00,57.9,53.7,29.68,SSE,152,13.0,13.0,86,0.00,OVC,,0.08,WeatherDisplay:10.37,2013-06-24 20:08:00,
2013-06-24 13:13:00,58.3,53.8,29.68,South,172,13.0,13.0,85,0.00,OVC,,0.08,WeatherDisplay:10.37,2013-06-24 20:13:00,
2013-06-24 13:18:00,59.0,54.5,29.68,SSW,201,10.0,10.0,85,0.00,OVC,,0.08,WeatherDisplay:10.37,2013-06-24 20:18:00,
2013-06-24 13:23:00,59.4,54.6,29.68,SSE,163,16.0,16.0,84,0.00,OVC,,0.08,WeatherDisplay:10.37,2013-06-24 20:23:00,
2013-06-24 13:29:00,59.4,53.9,29.68,SSE,158,12.7,12.7,82,0.00,OVC,,0.08,WeatherDisplay:10.37,2013-06-24 20:29:00,
2013-06-24 13:34:00,59.7,54.5,29.68,SSE,153,17.3,17.3,83,0.00,OVC,,0.08,WeatherDisplay:10.37,2013-06-24 20:34:00,
2013-06-24 13:39:00,59.9,54.7,29.68,SE,144,14.0,14.0,83,0.00,OVC,,0.08,WeatherDisplay:10.37,2013-06-24 20:39:00,
2013-06-24 13:45:00,60.4,53.9,29.68,South,190,16.1,16.1,79,0.00,OVC,,0.08,WeatherDisplay:10.37,2013-06-24 20:45:00,
2013-06-24 13:50:00,60.6,54.0,29.67,South,173,6.9,6.9,79,0.00,OVC,,0.08,WeatherDisplay:10.37,2013-06-24 20:50:00,
2013-06-24 13:56:00,60.9,54.0,29.68,SSE,157,13.8,13.8,78,0.00,OVC,,0.08,WeatherDisplay:10.37,2013-06-24 20:56:00,
2013-06-24 14:01:00,60.8,54.9,29.68,SE,138,10.4,10.4,81,0.00,OVC,,0.08,WeatherDisplay:10.37,2013-06-24 21:01:00,
2013-06-24 14:06:00,61.3,54.0,29.67,South,184,18.4,18.4,77,0.00,OVC,,0.08,WeatherDisplay:10.37,2013-06-24 21:06:00,
2013-06-24 14:12:00,61.3,53.7,29.67,SE,132,11.5,11.5,76,0.00,OVC,,0.08,WeatherDisplay:10.37,2013-06-24 21:12:00,
2013-06-24 14:17:00,61.7,54.4,29.67,SW,216,11.5,11.5,77,0.00,OVC,,0.08,WeatherDisplay:10.37,2013-06-24 21:17:00,
2013-06-24 14:22:00,61.6,54.0,29.67,South,182,11.5,11.5,76,0.00,OVC,,0.08,WeatherDisplay:10.37,2013-06-24 21:22:00,
2013-06-24 14:27:00,61.7,55.1,29.67,South,175,10.0,10.0,79,0.00,OVC,,0.08,WeatherDisplay:10.37,2013-06-24 21:27:00,
2013-06-24 14:32:00,62.4,55.1,29.67,South,185,15.0,15.0,77,0.00,OVC,,0.08,WeatherDisplay:10.37,2013-06-24 21:32:00,
2013-06-24 14:37:00,62.9,55.2,29.67,South,180,9.2,9.2,76,0.00,OVC,,0.08,WeatherDisplay:10.37,2013-06-24 21:37:00,
2013-06-24 14:43:00,63.4,55.3,29.67,SSW,198,10.4,10.4,75,0.00,OVC,,0.08,WeatherDisplay:10.37,2013-06-24 21:43:00,
2013-06-24 14:48:00,63.5,55.1,29.67,South,190,11.5,11.5,74,0.00,OVC,,0.08,WeatherDisplay:10.37,2013-06-24 21:48:00,
2013-06-24 14:53:00,62.4,54.7,29.67,SSW,199,14.0,14.0,76,0.00,OVC,,0.08,WeatherDisplay:10.37,2013-06-24 21:53:00,
2013-06-24 14:58:00,61.7,54.8,29.67,SSE,167,10.4,10.4,78,0.00,OVC,,0.08,WeatherDisplay:10.37,2013-06-24 21:58:00,
2013-06-24 15:03:00,61.6,54.0,29.67,SSE,150,11.5,11.5,76,0.00,OVC,,0.08,WeatherDisplay:10.37,2013-06-24 22:03:00,
2013-06-24 15:08:00,61.8,54.2,29.68,SSW,194,10.0,10.0,76,0.00,OVC,,0.08,WeatherDisplay:10.37,2013-06-24 22:08:00,
2013-06-24 15:13:00,61.4,53.4,29.68,South,169,12.7,12.7,75,0.00,OVC,,0.08,WeatherDisplay:10.37,2013-06-24 22:13:00,
2013-06-24 15:18:00,61.3,54.0,29.68,South,172,15.0,15.0,77,0.00,OVC,,0.08,WeatherDisplay:10.37,2013-06-24 22:18:00,
2013-06-24 15:23:00,61.4,54.1,29.68,South,169,10.4,10.4,77,0.00,OVC,,0.08,WeatherDisplay:10.37,2013-06-24 22:23:00,
2013-06-24 15:28:00,61.7,54.4,29.67,SSE,159,10.4,10.4,77,0.00,OVC,,0.08,WeatherDisplay:10.37,2013-06-24 22:28:00,
2013-06-24 15:33:00,61.6,54.0,29.67,SW,217,11.5,11.5,76,0.00,OVC,,0.08,WeatherDisplay:10.37,2013-06-24 22:33:00,
2013-06-24 15:39:00,61.4,53.8,29.68,SSW,196,10.4,10.4,76,0.00,OVC,,0.08,WeatherDisplay:10.37,2013-06-24 22:39:00,
2013-06-24 15:44:00,61.4,54.1,29.68,South,183,11.5,11.5,77,0.00,OVC,,0.08,WeatherDisplay:10.37,2013-06-24 22:44:00,
2013-06-24 15:49:00,61.3,54.0,29.68,South,191,14.0,14.0,77,0.00,OVC,,0.08,WeatherDisplay:10.37,2013-06-24 22:49:00,
2013-06-24 15:54:00,61.2,53.9,29.68,SSW,197,11.5,11.5,77,0.00,OVC,,0.08,WeatherDisplay:10.37,2013-06-24 22:54:00,
2013-06-24 16:00:00,61.1,53.8,29.68,South,173,11.5,11.5,77,0.00,OVC,,0.08,WeatherDisplay:10.37,2013-06-24 23:00:00,
2013-06-24 16:05:00,61.0,53.7,29.68,South,169,10.4,10.4,77,0.00,OVC,,0.08,WeatherDisplay:10.37,2013-06-24 23:05:00,
2013-06-24 16:11:00,61.1,54.2,29.68,SSE,159,6.9,6.9,78,0.00,OVC,,0.08,WeatherDisplay:10.37,2013-06-24 23:11:00,
2013-06-24 16:17:00,61.3,53.7,29.68,SE,142,11.5,11.5,76,0.00,OVC,,0.08,WeatherDisplay:10.37,2013-06-24 23:17:00,
2013-06-24 16:22:00,61.4,54.1,29.68,South,179,6.9,6.9,77,0.00,OVC,,0.08,WeatherDisplay:10.37,2013-06-24 23:22:00,
2013-06-24 16:28:00,61.4,54.1,29.68,SSW,195,9.2,9.2,77,0.00,OVC,,0.08,WeatherDisplay:10.37,2013-06-24 23:28:00,
2013-06-24 16:33:00,61.4,54.1,29.68,SE,144,9.2,9.2,77,0.00,OVC,,0.08,WeatherDisplay:10.37,2013-06-24 23:33:00,
2013-06-24 16:38:00,61.3,54.0,29.68,South,190,5.8,5.8,77,0.00,OVC,,0.08,WeatherDisplay:10.37,2013-06-24 23:38:00,
2013-06-24 16:43:00,61.2,54.3,29.68,South,180,4.0,4.0,78,0.00,OVC,,0.08,WeatherDisplay:10.37,2013-06-24 23:43:00,
2013-06-24 16:49:00,60.8,54.6,29.68,SSW,201,7.0,7.0,80,0.00,OVC,,0.08,WeatherDisplay:10.37,2013-06-24 23:49:00,
2013-06-24 16:54:00,60.2,54.7,29.68,SSE,162,3.5,3.5,82,0.00,OVC,,0.08,WeatherDisplay:10.37,2013-06-24 23:54:00,
2013-06-24 16:59:00,59.9,54.7,29.68,SSE,162,3.0,3.0,83,0.00,OVC,,0.08,WeatherDisplay:10.37,2013-06-24 23:59:00,
2013-06-24 17:05:00,59.8,54.6,29.68,SSE,162,1.1,1.1,83,0.00,OVC,,0.08,WeatherDisplay:10.37,2013-06-25 00:05:00,
2013-06-24 17:10:00,59.8,55.0,29.68,SSE,162,1.1,0.0,84,0.00,OVC,,0.08,WeatherDisplay:10.37,2013-06-25 00:10:00,
2013-06-24 17:15:00,59.8,55.0,29.68,SSE,162,2.0,2.0,84,0.00,OVC,,0.08,WeatherDisplay:10.37,2013-06-25 00:15:00,
2013-06-24 17:21:00,59.8,54.6,29.68,SSE,162,2.3,2.3,83,0.00,OVC,,0.08,WeatherDisplay:10.37,2013-06-25 00:21:00,
2013-06-24 17:26:00,59.8,55.0,29.68,SSW,198,4.6,4.6,84,0.00,OVC,,0.08,WeatherDisplay:10.37,2013-06-25 00:26:00,
2013-06-24 17:31:00,59.8,55.0,29.68,South,181,4.6,4.6,84,0.00,OVC,,0.08,WeatherDisplay:10.37,2013-06-25 00:31:00,
2013-06-24 17:36:00,59.9,54.7,29.69,South,190,4.6,4.6,83,0.00,OVC,,0.08,WeatherDisplay:10.37,2013-06-25 00:36:00,
2013-06-24 17:41:00,59.9,54.7,29.68,South,175,4.6,4.6,83,0.00,OVC,,0.08,WeatherDisplay:10.37,2013-06-25 00:41:00,
2013-06-24 17:47:00,59.8,53.6,29.68,SSE,167,9.2,9.2,80,0.00,OVC,,0.08,WeatherDisplay:10.37,2013-06-25 00:47:00,
2013-06-24 17:52:00,59.8,53.6,29.68,SSE,155,5.0,5.0,80,0.00,OVC,,0.08,WeatherDisplay:10.37,2013-06-25 00:52:00,
2013-06-24 17:58:00,59.9,53.4,29.68,South,189,10.4,10.4,79,0.00,OVC,,0.08,WeatherDisplay:10.37,2013-06-25 00:58:00,
2013-06-24 18:03:00,60.0,53.5,29.69,South,173,4.0,4.0,79,0.00,OVC,,0.08,WeatherDisplay:10.37,2013-06-25 01:03:00,
2013-06-24 18:09:00,60.1,53.2,29.69,South,184,7.0,7.0,78,0.00,OVC,,0.08,WeatherDisplay:10.37,2013-06-25 01:09:00,
2013-06-24 18:14:00,60.1,53.6,29.69,South,184,5.0,5.0,79,0.00,OVC,,0.08,WeatherDisplay:10.37,2013-06-25 01:14:00,
2013-06-24 18:20:00,60.2,53.0,29.69,SSE,161,8.1,8.1,77,0.00,OVC,,0.08,WeatherDisplay:10.37,2013-06-25 01:20:00,
2013-06-24 18:25:00,60.2,53.3,29.69,South,169,4.6,4.6,78,0.00,OVC,,0.08,WeatherDisplay:10.37,2013-06-25 01:25:00,
2013-06-24 18:30:00,60.3,53.8,29.69,South,169,3.5,3.5,79,0.00,OVC,,0.08,WeatherDisplay:10.37,2013-06-25 01:30:00,
2013-06-24 18:35:00,60.3,53.4,29.69,South,188,9.2,9.2,78,0.00,OVC,,0.08,WeatherDisplay:10.37,2013-06-25 01:35:00,
2013-06-24 18:40:00,60.3,53.4,29.69,SSE,161,3.5,3.5,78,0.00,OVC,,0.08,WeatherDisplay:10.37,2013-06-25 01:40:00,
2013-06-24 18:45:00,60.3,53.4,29.69,South,170,4.6,4.6,78,0.00,OVC,,0.08,WeatherDisplay:10.37,2013-06-25 01:45:00,
2013-06-24 18:51:00,60.2,53.3,29.69,South,188,4.6,4.6,78,0.00,OVC,,0.08,WeatherDisplay:10.37,2013-06-25 01:51:00,
2013-06-24 18:57:00,60.2,53.3,29.69,SSE,167,5.0,5.0,78,0.00,OVC,,0.08,WeatherDisplay:10.37,2013-06-25 01:57:00,
2013-06-24 19:02:00,60.0,53.5,29.69,South,171,4.6,4.6,79,0.00,OVC,,0.08,WeatherDisplay:10.37,2013-06-25 02:02:00,
2013-06-24 19:07:00,59.8,53.6,29.69,SSE,153,6.9,6.9,80,0.00,OVC,,0.08,WeatherDisplay:10.37,2013-06-25 02:07:00,
2013-06-24 19:12:00,59.3,53.8,29.70,South,178,5.8,5.8,82,0.00,OVC,,0.08,WeatherDisplay:10.37,2013-06-25 02:12:00,
2013-06-24 19:17:00,59.0,53.8,29.70,SSE,163,3.5,3.5,83,0.00,OVC,,0.08,WeatherDisplay:10.37,2013-06-25 02:17:00,
2013-06-24 19:22:00,59.0,54.2,29.70,SSE,163,3.5,3.5,84,0.00,OVC,,0.08,WeatherDisplay:10.37,2013-06-25 02:22:00,
2013-06-24 19:28:00,58.6,53.8,29.70,SSE,163,2.3,2.3,84,0.00,OVC,,0.08,WeatherDisplay:10.37,2013-06-25 02:28:00,
2013-06-24 19:33:00,58.5,54.0,29.69,SSE,163,3.5,3.5,85,0.00,OVC,,0.08,WeatherDisplay:10.37,2013-06-25 02:33:00,
2013-06-24 19:38:00,58.4,53.9,29.69,SSE,155,2.3,0.0,85,0.00,OVC,,0.08,WeatherDisplay:10.37,2013-06-25 02:38:00,
2013-06-24 19:44:00,58.3,53.5,29.69,SSE,150,5.0,5.0,84,0.00,OVC,,0.08,WeatherDisplay:10.37,2013-06-25 02:44:00,
2013-06-24 19:49:00,58.4,53.6,29.69,SSE,161,5.8,5.8,84,0.00,OVC,,0.08,WeatherDisplay:10.37,2013-06-25 02:49:00,
2013-06-24 19:54:00,58.5,53.7,29.69,SE,144,8.1,8.1,84,0.00,OVC,,0.08,WeatherDisplay:10.37,2013-06-25 02:54:00,
2013-06-24 19:59:00,58.6,54.1,29.69,SE,144,3.5,3.5,85,0.00,OVC,,0.08,WeatherDisplay:10.37,2013-06-25 02:59:00,
2013-06-24 20:04:00,58.6,53.8,29.69,SSE,163,3.5,3.5,84,0.00,OVC,,0.08,WeatherDisplay:10.37,2013-06-25 03:04:00,
2013-06-24 20:09:00,58.6,54.1,29.69,SSE,165,10.0,10.0,85,0.00,OVC,,0.08,WeatherDisplay:10.37,2013-06-25 03:09:00,
2013-06-24 20:15:00,58.6,53.8,29.69,SSE,165,1.1,0.0,84,0.00,OVC,,0.08,WeatherDisplay:10.37,2013-06-25 03:15:00,
2013-06-24 20:20:00,58.6,53.8,29.69,SSE,165,2.3,2.3,84,0.00,OVC,,0.08,WeatherDisplay:10.37,2013-06-25 03:20:00,
2013-06-24 20:26:00,58.6,53.8,29.69,SSE,165,3.5,3.5,84,0.00,OVC,,0.08,WeatherDisplay:10.37,2013-06-25 03:26:00,
2013-06-24 20:32:00,58.6,53.8,29.69,SSE,165,3.0,3.0,84,0.00,OVC,,0.08,WeatherDisplay:10.37,2013-06-25 03:32:00,
2013-06-24 20:38:00,58.5,53.4,29.68,SSE,150,4.0,4.0,83,0.00,OVC,,0.08,WeatherDisplay:10.37,2013-06-25 03:38:00,
2013-06-24 20:44:00,58.5,53.4,29.68,SSE,150,3.5,3.5,83,0.00,OVC,,0.08,WeatherDisplay:10.37,2013-06-25 03:44:00,
2013-06-24 20:49:00,58.4,53.6,29.68,SSE,150,3.5,3.5,84,0.00,OVC,,0.08,WeatherDisplay:10.37,2013-06-25 03:49:00,
2013-06-24 20:55:00,58.3,53.5,29.68,SSE,150,3.5,3.5,84,0.00,OVC,,0.08,WeatherDisplay:10.37,2013-06-25 03:55:00,
2013-06-24 21:00:00,58.3,53.5,29.69,SSE,150,1.1,0.0,84,0.00,OVC,,0.08,WeatherDisplay:10.37,2013-06-25 04:00:00,
2013-06-24 21:01:00,58.3,53.5,29.68,SSE,150,0.0,0.0,84,0.00,OVC,,0.08,WeatherDisplay:10.37,2013-06-25 04:01:00,
2013-06-24 21:02:00,58.3,53.5,29.68,SSE,150,0.0,0.0,84,0.00,OVC,,0.08,WeatherDisplay:10.37,2013-06-25 04:02:00,
2013-06-24 21:07:00,58.2,53.7,29.68,SSE,150,0.0,0.0,85,0.00,OVC,,0.08,WeatherDisplay:10.37,2013-06-25 04:07:00,
2013-06-24 21:12:00,58.2,53.7,29.68,SSE,150,0.0,0.0,85,0.00,OVC,,0.08,WeatherDisplay:10.37,2013-06-25 04:12:00,
2013-06-24 21:17:00,58.2,53.7,29.68,SSE,150,0.0,0.0,85,0.00,OVC,,0.08,WeatherDisplay:10.37,2013-06-25 04:17:00,
2013-06-24 21:22:00,58.1,53.9,29.68,SSE,150,0.0,0.0,86,0.00,OVC,,0.08,WeatherDisplay:10.37,2013-06-25 04:22:00,
2013-06-24 21:30:00,58.1,53.9,29.68,SE,135,1.1,0.0,86,0.00,OVC,,0.08,WeatherDisplay:10.37,2013-06-25 04:30:00,
2013-06-24 21:35:00,58.1,53.9,29.68,SE,135,0.0,0.0,86,0.00,OVC,,0.08,WeatherDisplay:10.37,2013-06-25 04:35:00,
2013-06-24 21:49:00,57.9,53.4,29.69,SE,145,4.0,4.0,85,0.00,OVC,,0.08,WeatherDisplay:10.37,2013-06-25 04:49:00,
2013-06-24 21:55:00,57.9,53.4,29.69,SSE,148,3.5,3.5,85,0.00,OVC,,0.08,WeatherDisplay:10.37,2013-06-25 04:55:00,
2013-06-24 22:00:00,57.9,53.4,29.69,SSE,154,5.8,5.8,85,0.00,OVC,,0.08,WeatherDisplay:10.37,2013-06-25 05:00:00,
2013-06-24 22:04:00,57.8,53.3,29.69,SSE,153,5.8,5.8,85,0.00,OVC,,0.08,WeatherDisplay:10.37,2013-06-25 05:04:00,
2013-06-24 22:09:00,57.8,53.3,29.69,SSE,153,4.0,4.0,85,0.00,OVC,,0.08,WeatherDisplay:10.37,2013-06-25 05:09:00,
2013-06-24 22:14:00,57.8,53.6,29.69,SSE,153,2.3,2.3,86,0.00,OVC,,0.08,WeatherDisplay:10.37,2013-06-25 05:14:00,
2013-06-24 22:19:00,57.7,53.5,29.68,ENE,78,3.0,3.0,86,0.00,OVC,,0.08,WeatherDisplay:10.37,2013-06-25 05:19:00,
2013-06-24 22:24:00,57.6,53.1,29.69,East,83,4.6,4.6,85,0.00,OVC,,0.08,WeatherDisplay:10.37,2013-06-25 05:24:00,
2013-06-24 22:29:00,57.6,53.4,29.68,SSE,155,4.0,4.0,86,0.00,OVC,,0.08,WeatherDisplay:10.37,2013-06-25 05:29:00,
2013-06-24 22:35:00,57.5,53.3,29.68,SSE,155,3.5,3.5,86,0.00,OVC,,0.08,WeatherDisplay:10.37,2013-06-25 05:35:00,
2013-06-24 22:39:00,57.3,53.1,29.69,SSE,152,4.6,4.6,86,0.00,OVC,,0.08,WeatherDisplay:10.37,2013-06-25 05:39:00,
2013-06-24 22:44:00,57.2,53.4,29.69,SSE,158,4.0,4.0,87,0.00,OVC,,0.08,WeatherDisplay:10.37,2013-06-25 05:44:00,
2013-06-24 22:49:00,57.0,53.2,29.69,SSE,155,2.3,2.3,87,0.00,OVC,,0.08,WeatherDisplay:10.37,2013-06-25 05:49:00,
2013-06-24 22:54:00,56.8,53.0,29.68,SE,146,5.8,5.8,87,0.00,OVC,,0.10,WeatherDisplay:10.37,2013-06-25 05:54:00,
2013-06-24 22:59:00,56.7,53.2,29.68,SE,127,3.5,3.5,88,0.01,RA,,0.10,WeatherDisplay:10.37,2013-06-25 05:59:00,
2013-06-24 23:04:00,56.5,53.0,29.68,SSE,155,6.0,6.0,88,0.01,RA,,0.10,WeatherDisplay:10.37,2013-06-25 06:04:00,
2013-06-24 23:09:00,56.3,52.8,29.68,SSE,155,4.6,4.6,88,0.01,OVC,,0.10,WeatherDisplay:10.37,2013-06-25 06:09:00,
2013-06-24 23:14:00,56.2,52.7,29.68,ESE,123,3.5,3.5,88,0.01,OVC,,0.10,WeatherDisplay:10.37,2013-06-25 06:14:00,
2013-06-24 23:19:00,56.1,52.9,29.68,SSE,153,4.0,4.0,89,0.01,OVC,,0.10,WeatherDisplay:10.37,2013-06-25 06:19:00,
2013-06-24 23:25:00,56.0,52.8,29.68,ESE,113,3.5,3.5,89,0.01,OVC,,0.10,WeatherDisplay:10.37,2013-06-25 06:25:00,
2013-06-24 23:30:00,55.9,52.7,29.68,SE,138,2.3,2.3,89,0.02,RA,,0.11,WeatherDisplay:10.37,2013-06-25 06:30:00,
2013-06-24 23:34:00,55.8,52.6,29.67,East,81,2.3,2.3,89,0.02,RA,,0.11,WeatherDisplay:10.37,2013-06-25 06:34:00,
2013-06-24 23:39:00,55.7,52.5,29.67,East,94,3.5,3.5,89,0.02,OVC,,0.11,WeatherDisplay:10.37,2013-06-25 06:39:00,
2013-06-24 23:44:00,55.7,52.5,29.67,SE,137,6.9,6.9,89,0.02,OVC,,0.11,WeatherDisplay:10.37,2013-06-25 06:44:00,
2013-06-24 23:49:00,55.6,52.4,29.67,ESE,113,4.6,4.6,89,0.02,OVC,,0.11,WeatherDisplay:10.37,2013-06-25 06:49:00,
2013-06-24 23:55:00,55.6,52.4,29.67,ESE,103,3.5,5.8,89,0.02,OVC,,0.11,WeatherDisplay:10.37,2013-06-25 06:55:00,
2013-06-24 23:59:00,55.6,52.4,29.67,South,175,4.6,4.6,89,0.01,OVC,,0.11,WeatherDisplay:10.37,2013-06-25 06:59:00,